sensor_id;sensor_type;location;lat;lon;timestamp;temperature;humidity
11055;DHT22;5580;50.106;8.702;2023-04-25T00:00:21;11.20;99.90
11055;DHT22;5580;50.106;8.702;2023-04-25T00:02:46;11.20;99.90
11055;DHT22;5580;50.106;8.702;2023-04-25T00:05:12;11.30;99.90
11055;DHT22;5580;50.106;8.702;2023-04-25T00:07:40;11.20;99.90
11055;DHT22;5580;50.106;8.702;2023-04-25T00:10:08;11.20;99.90
11055;DHT22;5580;50.106;8.702;2023-04-25T00:12:34;11.20;99.90
11055;DHT22;5580;50.106;8.702;2023-04-25T00:15:01;11.20;99.90
11055;DHT22;5580;50.106;8.702;2023-04-25T00:17:27;11.20;99.90
11055;DHT22;5580;50.106;8.702;2023-04-25T00:19:52;11.20;99.90
11055;DHT22;5580;50.106;8.702;2023-04-25T00:22:18;11.20;99.90
11055;DHT22;5580;50.106;8.702;2023-04-25T00:24:43;11.20;99.90
11055;DHT22;5580;50.106;8.702;2023-04-25T00:27:09;11.20;99.90
11055;DHT22;5580;50.106;8.702;2023-04-25T00:29:34;11.20;99.90
11055;DHT22;5580;50.106;8.702;2023-04-25T00:32:01;11.20;99.90
11055;DHT22;5580;50.106;8.702;2023-04-25T00:34:26;11.20;99.90
11055;DHT22;5580;50.106;8.702;2023-04-25T00:36:52;11.20;99.90
11055;DHT22;5580;50.106;8.702;2023-04-25T00:39:17;11.10;99.90
11055;DHT22;5580;50.106;8.702;2023-04-25T00:41:43;11.10;99.90
11055;DHT22;5580;50.106;8.702;2023-04-25T00:44:11;11.10;99.90
11055;DHT22;5580;50.106;8.702;2023-04-25T00:46:38;11.10;99.90
11055;DHT22;5580;50.106;8.702;2023-04-25T00:49:04;11.00;99.90
11055;DHT22;5580;50.106;8.702;2023-04-25T00:51:30;11.00;99.90
11055;DHT22;5580;50.106;8.702;2023-04-25T00:53:58;11.00;99.90
11055;DHT22;5580;50.106;8.702;2023-04-25T00:56:23;11.00;99.90
11055;DHT22;5580;50.106;8.702;2023-04-25T00:58:52;11.00;99.90
11055;DHT22;5580;50.106;8.702;2023-04-25T01:01:19;11.10;99.90
11055;DHT22;5580;50.106;8.702;2023-04-25T01:03:46;11.00;99.90
11055;DHT22;5580;50.106;8.702;2023-04-25T01:06:12;11.00;99.90
11055;DHT22;5580;50.106;8.702;2023-04-25T01:08:38;11.00;99.90
11055;DHT22;5580;50.106;8.702;2023-04-25T01:11:04;11.00;99.90
11055;DHT22;5580;50.106;8.702;2023-04-25T01:13:30;11.00;99.90
11055;DHT22;5580;50.106;8.702;2023-04-25T01:15:57;11.00;99.90
11055;DHT22;5580;50.106;8.702;2023-04-25T01:18:23;10.90;99.90
11055;DHT22;5580;50.106;8.702;2023-04-25T01:20:51;11.00;99.90
11055;DHT22;5580;50.106;8.702;2023-04-25T01:23:18;11.00;99.90
11055;DHT22;5580;50.106;8.702;2023-04-25T01:25:44;11.00;99.90
11055;DHT22;5580;50.106;8.702;2023-04-25T01:28:10;11.00;99.90
11055;DHT22;5580;50.106;8.702;2023-04-25T01:30:36;10.90;99.90
11055;DHT22;5580;50.106;8.702;2023-04-25T01:33:03;10.90;99.90
11055;DHT22;5580;50.106;8.702;2023-04-25T01:35:30;11.00;99.90
11055;DHT22;5580;50.106;8.702;2023-04-25T01:37:57;11.00;99.90
11055;DHT22;5580;50.106;8.702;2023-04-25T01:40:24;11.00;99.90
11055;DHT22;5580;50.106;8.702;2023-04-25T01:42:50;11.00;99.90
11055;DHT22;5580;50.106;8.702;2023-04-25T01:45:17;11.00;99.90
11055;DHT22;5580;50.106;8.702;2023-04-25T01:47:43;11.00;99.90
11055;DHT22;5580;50.106;8.702;2023-04-25T01:50:12;11.00;99.90
11055;DHT22;5580;50.106;8.702;2023-04-25T01:52:38;11.00;99.90
11055;DHT22;5580;50.106;8.702;2023-04-25T01:55:04;11.00;99.90
11055;DHT22;5580;50.106;8.702;2023-04-25T01:57:29;11.00;99.90
11055;DHT22;5580;50.106;8.702;2023-04-25T01:59:59;11.00;99.90
11055;DHT22;5580;50.106;8.702;2023-04-25T02:02:25;11.00;99.90
11055;DHT22;5580;50.106;8.702;2023-04-25T02:04:51;10.90;99.90
11055;DHT22;5580;50.106;8.702;2023-04-25T02:07:17;10.90;99.90
11055;DHT22;5580;50.106;8.702;2023-04-25T02:09:42;10.90;99.90
11055;DHT22;5580;50.106;8.702;2023-04-25T02:12:10;11.00;99.90
11055;DHT22;5580;50.106;8.702;2023-04-25T02:14:35;11.00;99.90
11055;DHT22;5580;50.106;8.702;2023-04-25T02:17:01;11.00;99.90
11055;DHT22;5580;50.106;8.702;2023-04-25T02:19:27;11.00;99.90
11055;DHT22;5580;50.106;8.702;2023-04-25T02:21:53;11.00;99.90
11055;DHT22;5580;50.106;8.702;2023-04-25T02:24:18;11.00;99.90
11055;DHT22;5580;50.106;8.702;2023-04-25T02:26:44;11.00;99.90
11055;DHT22;5580;50.106;8.702;2023-04-25T02:29:10;11.00;99.90
11055;DHT22;5580;50.106;8.702;2023-04-25T02:31:35;11.00;99.90
11055;DHT22;5580;50.106;8.702;2023-04-25T02:34:01;11.00;99.90
11055;DHT22;5580;50.106;8.702;2023-04-25T02:36:26;11.00;99.90
11055;DHT22;5580;50.106;8.702;2023-04-25T02:38:52;10.90;99.90
11055;DHT22;5580;50.106;8.702;2023-04-25T02:41:18;10.90;99.90
11055;DHT22;5580;50.106;8.702;2023-04-25T02:43:44;11.00;99.90
11055;DHT22;5580;50.106;8.702;2023-04-25T02:46:09;10.90;99.90
11055;DHT22;5580;50.106;8.702;2023-04-25T02:48:35;10.90;99.90
11055;DHT22;5580;50.106;8.702;2023-04-25T02:51:00;10.80;99.90
11055;DHT22;5580;50.106;8.702;2023-04-25T02:53:26;10.90;99.90
11055;DHT22;5580;50.106;8.702;2023-04-25T02:55:51;10.90;99.90
11055;DHT22;5580;50.106;8.702;2023-04-25T02:58:18;10.90;99.90
11055;DHT22;5580;50.106;8.702;2023-04-25T03:00:43;10.90;99.90
11055;DHT22;5580;50.106;8.702;2023-04-25T03:03:09;10.90;99.90
11055;DHT22;5580;50.106;8.702;2023-04-25T03:05:35;10.90;99.90
11055;DHT22;5580;50.106;8.702;2023-04-25T03:08:00;10.80;99.90
11055;DHT22;5580;50.106;8.702;2023-04-25T03:10:26;10.90;99.90
11055;DHT22;5580;50.106;8.702;2023-04-25T03:12:51;10.80;99.90
11055;DHT22;5580;50.106;8.702;2023-04-25T03:15:17;10.80;99.90
11055;DHT22;5580;50.106;8.702;2023-04-25T03:17:43;10.70;99.90
11055;DHT22;5580;50.106;8.702;2023-04-25T03:20:09;10.70;99.90
11055;DHT22;5580;50.106;8.702;2023-04-25T03:22:34;10.70;99.90
11055;DHT22;5580;50.106;8.702;2023-04-25T03:25:00;10.80;99.90
11055;DHT22;5580;50.106;8.702;2023-04-25T03:27:25;10.80;99.90
11055;DHT22;5580;50.106;8.702;2023-04-25T03:29:51;10.80;99.90
11055;DHT22;5580;50.106;8.702;2023-04-25T03:32:16;10.80;99.90
11055;DHT22;5580;50.106;8.702;2023-04-25T03:34:42;10.80;99.90
11055;DHT22;5580;50.106;8.702;2023-04-25T03:37:08;10.80;99.90
11055;DHT22;5580;50.106;8.702;2023-04-25T03:39:33;10.80;99.90
11055;DHT22;5580;50.106;8.702;2023-04-25T03:41:59;10.90;99.90
11055;DHT22;5580;50.106;8.702;2023-04-25T03:44:25;10.80;99.90
11055;DHT22;5580;50.106;8.702;2023-04-25T03:46:50;10.90;99.90
11055;DHT22;5580;50.106;8.702;2023-04-25T03:49:16;10.80;99.90
11055;DHT22;5580;50.106;8.702;2023-04-25T03:51:42;10.80;99.90
11055;DHT22;5580;50.106;8.702;2023-04-25T03:54:07;10.80;99.90
11055;DHT22;5580;50.106;8.702;2023-04-25T03:56:33;10.70;99.90
11055;DHT22;5580;50.106;8.702;2023-04-25T03:58:58;10.70;99.90
11055;DHT22;5580;50.106;8.702;2023-04-25T04:01:24;10.70;99.90
11055;DHT22;5580;50.106;8.702;2023-04-25T04:03:50;10.80;99.90
11055;DHT22;5580;50.106;8.702;2023-04-25T04:06:16;10.70;99.90
11055;DHT22;5580;50.106;8.702;2023-04-25T04:08:42;10.70;99.90
11055;DHT22;5580;50.106;8.702;2023-04-25T04:11:07;10.70;99.90
11055;DHT22;5580;50.106;8.702;2023-04-25T04:13:33;10.70;99.90
11055;DHT22;5580;50.106;8.702;2023-04-25T04:15:58;10.70;99.90
11055;DHT22;5580;50.106;8.702;2023-04-25T04:18:24;10.70;99.90
11055;DHT22;5580;50.106;8.702;2023-04-25T04:20:49;10.70;99.90
11055;DHT22;5580;50.106;8.702;2023-04-25T04:23:15;10.70;99.90
11055;DHT22;5580;50.106;8.702;2023-04-25T04:25:41;10.70;99.90
11055;DHT22;5580;50.106;8.702;2023-04-25T04:28:07;10.70;99.90
11055;DHT22;5580;50.106;8.702;2023-04-25T04:30:32;10.70;99.90
11055;DHT22;5580;50.106;8.702;2023-04-25T04:33:01;10.70;99.90
11055;DHT22;5580;50.106;8.702;2023-04-25T04:35:27;10.70;99.90
11055;DHT22;5580;50.106;8.702;2023-04-25T04:37:53;10.70;99.90
11055;DHT22;5580;50.106;8.702;2023-04-25T04:40:19;10.70;99.90
11055;DHT22;5580;50.106;8.702;2023-04-25T04:42:45;10.70;99.90
11055;DHT22;5580;50.106;8.702;2023-04-25T04:45:11;10.70;99.90
11055;DHT22;5580;50.106;8.702;2023-04-25T04:47:37;10.50;99.90
11055;DHT22;5580;50.106;8.702;2023-04-25T04:50:05;10.50;99.90
11055;DHT22;5580;50.106;8.702;2023-04-25T04:52:34;10.50;99.90
11055;DHT22;5580;50.106;8.702;2023-04-25T04:54:59;10.50;99.90
11055;DHT22;5580;50.106;8.702;2023-04-25T04:57:25;10.40;99.90
11055;DHT22;5580;50.106;8.702;2023-04-25T04:59:51;10.40;99.90
11055;DHT22;5580;50.106;8.702;2023-04-25T05:02:16;10.40;99.90
11055;DHT22;5580;50.106;8.702;2023-04-25T05:04:42;10.40;99.90
11055;DHT22;5580;50.106;8.702;2023-04-25T05:07:07;10.30;99.90
11055;DHT22;5580;50.106;8.702;2023-04-25T05:09:33;10.20;99.90
11055;DHT22;5580;50.106;8.702;2023-04-25T05:11:59;10.20;99.90
11055;DHT22;5580;50.106;8.702;2023-04-25T05:14:26;10.30;99.90
11055;DHT22;5580;50.106;8.702;2023-04-25T05:16:52;10.30;99.90
11055;DHT22;5580;50.106;8.702;2023-04-25T05:19:17;10.20;99.90
11055;DHT22;5580;50.106;8.702;2023-04-25T05:21:43;10.10;99.90
11055;DHT22;5580;50.106;8.702;2023-04-25T05:24:09;10.10;99.90
11055;DHT22;5580;50.106;8.702;2023-04-25T05:26:34;10.10;99.90
11055;DHT22;5580;50.106;8.702;2023-04-25T05:29:00;10.20;99.90
11055;DHT22;5580;50.106;8.702;2023-04-25T05:31:26;10.20;99.90
11055;DHT22;5580;50.106;8.702;2023-04-25T05:33:51;10.10;99.90
11055;DHT22;5580;50.106;8.702;2023-04-25T05:36:18;10.10;99.90
11055;DHT22;5580;50.106;8.702;2023-04-25T05:38:44;10.10;99.90
11055;DHT22;5580;50.106;8.702;2023-04-25T05:41:10;10.20;99.90
11055;DHT22;5580;50.106;8.702;2023-04-25T05:43:36;10.20;99.90
11055;DHT22;5580;50.106;8.702;2023-04-25T05:46:01;10.40;99.90
11055;DHT22;5580;50.106;8.702;2023-04-25T05:48:27;10.50;99.90
11055;DHT22;5580;50.106;8.702;2023-04-25T05:50:52;10.60;99.90
11055;DHT22;5580;50.106;8.702;2023-04-25T05:53:19;10.70;99.90
11055;DHT22;5580;50.106;8.702;2023-04-25T05:55:45;10.90;99.90
11055;DHT22;5580;50.106;8.702;2023-04-25T05:58:10;11.00;99.90
11055;DHT22;5580;50.106;8.702;2023-04-25T06:00:36;11.00;99.90
11055;DHT22;5580;50.106;8.702;2023-04-25T06:03:01;11.10;99.90
11055;DHT22;5580;50.106;8.702;2023-04-25T06:05:28;11.20;99.90
11055;DHT22;5580;50.106;8.702;2023-04-25T06:07:53;11.10;99.90
11055;DHT22;5580;50.106;8.702;2023-04-25T06:10:19;11.10;99.90
11055;DHT22;5580;50.106;8.702;2023-04-25T06:12:45;11.20;99.90
11055;DHT22;5580;50.106;8.702;2023-04-25T06:15:10;11.10;99.90
11055;DHT22;5580;50.106;8.702;2023-04-25T06:17:36;11.10;99.90
11055;DHT22;5580;50.106;8.702;2023-04-25T06:20:02;11.20;99.90
11055;DHT22;5580;50.106;8.702;2023-04-25T06:22:28;11.30;99.90
11055;DHT22;5580;50.106;8.702;2023-04-25T06:24:54;11.20;99.90
11055;DHT22;5580;50.106;8.702;2023-04-25T06:27:22;11.20;99.90
11055;DHT22;5580;50.106;8.702;2023-04-25T06:29:48;11.30;99.90
11055;DHT22;5580;50.106;8.702;2023-04-25T06:32:13;11.30;99.90
11055;DHT22;5580;50.106;8.702;2023-04-25T06:34:39;11.10;99.90
11055;DHT22;5580;50.106;8.702;2023-04-25T06:37:05;11.00;99.90
11055;DHT22;5580;50.106;8.702;2023-04-25T06:39:30;11.00;99.90
11055;DHT22;5580;50.106;8.702;2023-04-25T06:41:56;11.00;99.90
11055;DHT22;5580;50.106;8.702;2023-04-25T06:44:21;11.00;99.90
11055;DHT22;5580;50.106;8.702;2023-04-25T06:46:49;11.10;99.90
11055;DHT22;5580;50.106;8.702;2023-04-25T06:49:15;11.20;99.90
11055;DHT22;5580;50.106;8.702;2023-04-25T06:51:41;11.30;99.90
11055;DHT22;5580;50.106;8.702;2023-04-25T06:54:06;11.50;99.90
11055;DHT22;5580;50.106;8.702;2023-04-25T06:56:32;11.60;99.90
11055;DHT22;5580;50.106;8.702;2023-04-25T06:58:57;11.60;99.90
11055;DHT22;5580;50.106;8.702;2023-04-25T07:01:23;11.70;99.90
11055;DHT22;5580;50.106;8.702;2023-04-25T07:03:49;11.80;99.90
11055;DHT22;5580;50.106;8.702;2023-04-25T07:06:14;11.90;99.90
11055;DHT22;5580;50.106;8.702;2023-04-25T07:08:40;11.90;99.90
11055;DHT22;5580;50.106;8.702;2023-04-25T07:11:06;11.90;99.90
11055;DHT22;5580;50.106;8.702;2023-04-25T07:13:31;12.00;99.90
11055;DHT22;5580;50.106;8.702;2023-04-25T07:15:57;12.00;99.90
11055;DHT22;5580;50.106;8.702;2023-04-25T07:18:22;12.10;99.90
11055;DHT22;5580;50.106;8.702;2023-04-25T07:20:48;12.20;99.90
11055;DHT22;5580;50.106;8.702;2023-04-25T07:23:14;12.30;99.90
11055;DHT22;5580;50.106;8.702;2023-04-25T07:25:39;12.30;99.90
11055;DHT22;5580;50.106;8.702;2023-04-25T07:28:05;12.30;99.90
11055;DHT22;5580;50.106;8.702;2023-04-25T07:30:31;12.30;99.90
11055;DHT22;5580;50.106;8.702;2023-04-25T07:32:56;12.30;99.90
11055;DHT22;5580;50.106;8.702;2023-04-25T07:35:22;12.30;99.90
11055;DHT22;5580;50.106;8.702;2023-04-25T07:37:48;12.30;99.90
11055;DHT22;5580;50.106;8.702;2023-04-25T07:40:13;12.30;99.90
11055;DHT22;5580;50.106;8.702;2023-04-25T07:42:41;12.20;99.90
11055;DHT22;5580;50.106;8.702;2023-04-25T07:45:07;12.20;99.90
11055;DHT22;5580;50.106;8.702;2023-04-25T07:47:34;12.30;99.90
11055;DHT22;5580;50.106;8.702;2023-04-25T07:50:00;12.40;99.90
11055;DHT22;5580;50.106;8.702;2023-04-25T07:52:26;12.60;99.90
11055;DHT22;5580;50.106;8.702;2023-04-25T07:54:51;12.60;99.90
11055;DHT22;5580;50.106;8.702;2023-04-25T07:57:17;12.80;99.90
11055;DHT22;5580;50.106;8.702;2023-04-25T07:59:43;13.00;99.90
11055;DHT22;5580;50.106;8.702;2023-04-25T08:02:09;13.20;99.90
11055;DHT22;5580;50.106;8.702;2023-04-25T08:04:34;13.30;99.90
11055;DHT22;5580;50.106;8.702;2023-04-25T08:07:00;13.40;99.90
11055;DHT22;5580;50.106;8.702;2023-04-25T08:09:26;13.50;99.90
11055;DHT22;5580;50.106;8.702;2023-04-25T08:11:51;13.50;99.90
11055;DHT22;5580;50.106;8.702;2023-04-25T08:14:17;13.60;99.90
11055;DHT22;5580;50.106;8.702;2023-04-25T08:16:43;13.50;99.90
11055;DHT22;5580;50.106;8.702;2023-04-25T08:19:09;13.50;99.90
11055;DHT22;5580;50.106;8.702;2023-04-25T08:21:36;13.40;99.90
11055;DHT22;5580;50.106;8.702;2023-04-25T08:24:01;13.30;99.90
11055;DHT22;5580;50.106;8.702;2023-04-25T08:26:28;13.20;99.90
11055;DHT22;5580;50.106;8.702;2023-04-25T08:28:54;13.30;99.90
11055;DHT22;5580;50.106;8.702;2023-04-25T08:31:20;13.10;99.90
11055;DHT22;5580;50.106;8.702;2023-04-25T08:33:46;13.00;99.90
11055;DHT22;5580;50.106;8.702;2023-04-25T08:36:11;13.00;99.90
11055;DHT22;5580;50.106;8.702;2023-04-25T08:38:37;13.00;99.90
11055;DHT22;5580;50.106;8.702;2023-04-25T08:41:03;12.90;99.90
11055;DHT22;5580;50.106;8.702;2023-04-25T08:43:29;12.90;99.90
11055;DHT22;5580;50.106;8.702;2023-04-25T08:45:59;13.00;99.90
11055;DHT22;5580;50.106;8.702;2023-04-25T08:48:28;13.00;99.90
11055;DHT22;5580;50.106;8.702;2023-04-25T08:50:56;13.10;99.90
11055;DHT22;5580;50.106;8.702;2023-04-25T08:53:25;13.20;99.90
11055;DHT22;5580;50.106;8.702;2023-04-25T08:55:54;13.20;99.90
11055;DHT22;5580;50.106;8.702;2023-04-25T08:58:20;13.10;99.90
11055;DHT22;5580;50.106;8.702;2023-04-25T09:00:47;13.20;99.90
11055;DHT22;5580;50.106;8.702;2023-04-25T09:03:13;13.20;99.90
11055;DHT22;5580;50.106;8.702;2023-04-25T09:05:40;13.20;99.90
11055;DHT22;5580;50.106;8.702;2023-04-25T09:08:06;13.30;99.90
11055;DHT22;5580;50.106;8.702;2023-04-25T09:10:32;13.30;99.90
11055;DHT22;5580;50.106;8.702;2023-04-25T09:13:08;13.10;99.90
11055;DHT22;5580;50.106;8.702;2023-04-25T09:15:47;13.20;99.90
11055;DHT22;5580;50.106;8.702;2023-04-25T09:18:28;13.30;99.90
11055;DHT22;5580;50.106;8.702;2023-04-25T09:20:55;13.40;99.90
11055;DHT22;5580;50.106;8.702;2023-04-25T09:23:22;13.50;99.90
11055;DHT22;5580;50.106;8.702;2023-04-25T09:25:49;13.70;99.90
11055;DHT22;5580;50.106;8.702;2023-04-25T09:28:15;13.80;99.90
11055;DHT22;5580;50.106;8.702;2023-04-25T09:30:42;13.90;99.90
11055;DHT22;5580;50.106;8.702;2023-04-25T09:33:10;13.80;99.90
11055;DHT22;5580;50.106;8.702;2023-04-25T09:35:37;13.80;99.90
11055;DHT22;5580;50.106;8.702;2023-04-25T09:38:13;13.80;99.90
11055;DHT22;5580;50.106;8.702;2023-04-25T09:40:43;13.70;99.90
11055;DHT22;5580;50.106;8.702;2023-04-25T09:43:19;13.70;99.90
11055;DHT22;5580;50.106;8.702;2023-04-25T09:45:46;13.60;99.90
11055;DHT22;5580;50.106;8.702;2023-04-25T09:48:17;13.50;99.90
11055;DHT22;5580;50.106;8.702;2023-04-25T09:50:44;13.40;99.90
11055;DHT22;5580;50.106;8.702;2023-04-25T09:53:10;13.40;99.90
11055;DHT22;5580;50.106;8.702;2023-04-25T09:55:36;13.40;99.90
11055;DHT22;5580;50.106;8.702;2023-04-25T09:58:06;13.50;99.90
11055;DHT22;5580;50.106;8.702;2023-04-25T10:00:33;13.50;99.90
11055;DHT22;5580;50.106;8.702;2023-04-25T10:03:01;13.60;99.90
11055;DHT22;5580;50.106;8.702;2023-04-25T10:05:30;13.70;99.90
11055;DHT22;5580;50.106;8.702;2023-04-25T10:07:59;13.70;99.90
11055;DHT22;5580;50.106;8.702;2023-04-25T10:10:28;13.80;99.90
11055;DHT22;5580;50.106;8.702;2023-04-25T10:12:54;13.90;99.90
11055;DHT22;5580;50.106;8.702;2023-04-25T10:15:21;13.90;99.90
11055;DHT22;5580;50.106;8.702;2023-04-25T10:17:49;14.00;99.90
11055;DHT22;5580;50.106;8.702;2023-04-25T10:20:14;14.00;99.90
11055;DHT22;5580;50.106;8.702;2023-04-25T10:22:47;14.10;99.90
11055;DHT22;5580;50.106;8.702;2023-04-25T10:25:14;14.10;99.90
11055;DHT22;5580;50.106;8.702;2023-04-25T10:27:40;14.10;99.90
11055;DHT22;5580;50.106;8.702;2023-04-25T10:30:10;14.00;99.90
11055;DHT22;5580;50.106;8.702;2023-04-25T10:32:41;14.00;99.90
11055;DHT22;5580;50.106;8.702;2023-04-25T10:35:12;13.90;99.90
11055;DHT22;5580;50.106;8.702;2023-04-25T10:37:38;13.90;99.90
11055;DHT22;5580;50.106;8.702;2023-04-25T10:40:22;13.90;99.90
11055;DHT22;5580;50.106;8.702;2023-04-25T10:42:48;13.80;99.90
11055;DHT22;5580;50.106;8.702;2023-04-25T10:45:14;13.70;99.90
11055;DHT22;5580;50.106;8.702;2023-04-25T10:47:45;13.60;99.90
11055;DHT22;5580;50.106;8.702;2023-04-25T10:50:11;13.40;99.90
11055;DHT22;5580;50.106;8.702;2023-04-25T10:52:39;13.20;99.90
11055;DHT22;5580;50.106;8.702;2023-04-25T10:55:08;13.10;99.90
11055;DHT22;5580;50.106;8.702;2023-04-25T10:57:38;13.00;99.90
11055;DHT22;5580;50.106;8.702;2023-04-25T11:02:30;13.00;99.90
11055;DHT22;5580;50.106;8.702;2023-04-25T11:04:56;12.90;99.90
11055;DHT22;5580;50.106;8.702;2023-04-25T11:10:08;12.80;99.90
11055;DHT22;5580;50.106;8.702;2023-04-25T11:12:34;12.70;99.90
11055;DHT22;5580;50.106;8.702;2023-04-25T11:15:02;12.70;99.90
11055;DHT22;5580;50.106;8.702;2023-04-25T11:17:28;12.70;99.90
11055;DHT22;5580;50.106;8.702;2023-04-25T11:19:54;12.70;99.90
11055;DHT22;5580;50.106;8.702;2023-04-25T11:22:22;12.80;99.90
11055;DHT22;5580;50.106;8.702;2023-04-25T11:24:48;12.90;99.90
11055;DHT22;5580;50.106;8.702;2023-04-25T11:27:13;13.00;99.90
11055;DHT22;5580;50.106;8.702;2023-04-25T11:29:40;13.10;99.90
11055;DHT22;5580;50.106;8.702;2023-04-25T11:32:05;13.10;99.90
11055;DHT22;5580;50.106;8.702;2023-04-25T11:34:32;13.10;99.90
11055;DHT22;5580;50.106;8.702;2023-04-25T11:37:01;13.10;99.90
11055;DHT22;5580;50.106;8.702;2023-04-25T11:39:28;13.10;99.90
11055;DHT22;5580;50.106;8.702;2023-04-25T11:41:54;13.10;99.90
11055;DHT22;5580;50.106;8.702;2023-04-25T11:44:21;13.10;99.90
11055;DHT22;5580;50.106;8.702;2023-04-25T11:46:47;13.20;99.90
11055;DHT22;5580;50.106;8.702;2023-04-25T11:49:13;13.30;99.90
11055;DHT22;5580;50.106;8.702;2023-04-25T11:51:43;13.40;99.90
11055;DHT22;5580;50.106;8.702;2023-04-25T11:54:10;13.40;99.90
11055;DHT22;5580;50.106;8.702;2023-04-25T11:56:35;13.40;99.90
11055;DHT22;5580;50.106;8.702;2023-04-25T11:59:03;13.40;99.90
11055;DHT22;5580;50.106;8.702;2023-04-25T12:01:30;13.30;99.90
11055;DHT22;5580;50.106;8.702;2023-04-25T12:03:57;13.30;99.90
11055;DHT22;5580;50.106;8.702;2023-04-25T12:06:28;13.30;99.90
11055;DHT22;5580;50.106;8.702;2023-04-25T12:09:01;13.40;99.90
11055;DHT22;5580;50.106;8.702;2023-04-25T12:11:32;13.40;99.90
11055;DHT22;5580;50.106;8.702;2023-04-25T12:14:03;13.40;99.90
11055;DHT22;5580;50.106;8.702;2023-04-25T12:16:39;13.40;99.90
11055;DHT22;5580;50.106;8.702;2023-04-25T12:19:05;13.40;99.90
11055;DHT22;5580;50.106;8.702;2023-04-25T12:21:32;13.40;99.90
11055;DHT22;5580;50.106;8.702;2023-04-25T12:24:12;13.40;99.90
11055;DHT22;5580;50.106;8.702;2023-04-25T12:29:23;13.40;99.90
11055;DHT22;5580;50.106;8.702;2023-04-25T12:31:50;13.30;99.90
11055;DHT22;5580;50.106;8.702;2023-04-25T12:34:20;13.30;99.90
11055;DHT22;5580;50.106;8.702;2023-04-25T12:36:46;13.30;99.90
11055;DHT22;5580;50.106;8.702;2023-04-25T12:41:41;13.30;99.90
11055;DHT22;5580;50.106;8.702;2023-04-25T12:44:07;13.20;99.90
11055;DHT22;5580;50.106;8.702;2023-04-25T12:46:32;13.20;99.90
11055;DHT22;5580;50.106;8.702;2023-04-25T12:48:58;13.10;99.90
11055;DHT22;5580;50.106;8.702;2023-04-25T12:51:24;12.90;99.90
11055;DHT22;5580;50.106;8.702;2023-04-25T12:53:51;12.90;99.90
11055;DHT22;5580;50.106;8.702;2023-04-25T12:56:17;13.00;99.90
11055;DHT22;5580;50.106;8.702;2023-04-25T12:58:43;13.00;99.90
11055;DHT22;5580;50.106;8.702;2023-04-25T13:01:09;13.10;99.90
11055;DHT22;5580;50.106;8.702;2023-04-25T13:03:35;13.10;99.90
11055;DHT22;5580;50.106;8.702;2023-04-25T13:06:01;13.10;99.90
11055;DHT22;5580;50.106;8.702;2023-04-25T13:08:26;13.20;99.90
11055;DHT22;5580;50.106;8.702;2023-04-25T13:10:52;13.20;99.90
11055;DHT22;5580;50.106;8.702;2023-04-25T13:13:17;13.30;99.90
11055;DHT22;5580;50.106;8.702;2023-04-25T13:15:43;13.30;99.90
11055;DHT22;5580;50.106;8.702;2023-04-25T13:18:09;13.40;99.90
11055;DHT22;5580;50.106;8.702;2023-04-25T13:20:34;13.40;99.90
11055;DHT22;5580;50.106;8.702;2023-04-25T13:23:00;13.40;99.90
11055;DHT22;5580;50.106;8.702;2023-04-25T13:25:26;13.40;99.90
11055;DHT22;5580;50.106;8.702;2023-04-25T13:27:51;13.40;99.90
11055;DHT22;5580;50.106;8.702;2023-04-25T13:30:17;13.40;99.90
11055;DHT22;5580;50.106;8.702;2023-04-25T13:32:42;13.40;99.90
11055;DHT22;5580;50.106;8.702;2023-04-25T13:35:10;13.50;99.90
11055;DHT22;5580;50.106;8.702;2023-04-25T13:37:36;13.50;99.90
11055;DHT22;5580;50.106;8.702;2023-04-25T13:40:04;13.60;99.90
11055;DHT22;5580;50.106;8.702;2023-04-25T13:42:33;13.50;99.90
11055;DHT22;5580;50.106;8.702;2023-04-25T13:44:59;13.50;99.90
11055;DHT22;5580;50.106;8.702;2023-04-25T13:47:25;13.50;99.90
11055;DHT22;5580;50.106;8.702;2023-04-25T13:49:52;13.40;99.90
11055;DHT22;5580;50.106;8.702;2023-04-25T13:52:18;13.50;99.90
11055;DHT22;5580;50.106;8.702;2023-04-25T13:54:44;13.50;99.90
11055;DHT22;5580;50.106;8.702;2023-04-25T13:57:10;13.50;99.90
11055;DHT22;5580;50.106;8.702;2023-04-25T13:59:36;13.50;99.90
11055;DHT22;5580;50.106;8.702;2023-04-25T14:02:02;13.40;99.90
11055;DHT22;5580;50.106;8.702;2023-04-25T14:04:28;13.20;99.90
11055;DHT22;5580;50.106;8.702;2023-04-25T14:06:53;13.20;99.90
11055;DHT22;5580;50.106;8.702;2023-04-25T14:09:19;13.20;99.90
11055;DHT22;5580;50.106;8.702;2023-04-25T14:11:47;13.20;99.90
11055;DHT22;5580;50.106;8.702;2023-04-25T14:14:13;13.30;99.90
11055;DHT22;5580;50.106;8.702;2023-04-25T14:16:41;13.40;99.90
11055;DHT22;5580;50.106;8.702;2023-04-25T14:19:06;13.40;99.90
11055;DHT22;5580;50.106;8.702;2023-04-25T14:21:32;13.40;99.90
11055;DHT22;5580;50.106;8.702;2023-04-25T14:23:58;13.50;99.90
11055;DHT22;5580;50.106;8.702;2023-04-25T14:26:24;13.50;99.90
11055;DHT22;5580;50.106;8.702;2023-04-25T14:28:51;13.50;99.90
11055;DHT22;5580;50.106;8.702;2023-04-25T14:31:16;13.50;99.90
11055;DHT22;5580;50.106;8.702;2023-04-25T14:33:42;13.50;99.90
11055;DHT22;5580;50.106;8.702;2023-04-25T14:36:09;13.50;99.90
11055;DHT22;5580;50.106;8.702;2023-04-25T14:38:34;13.50;99.90
11055;DHT22;5580;50.106;8.702;2023-04-25T14:41:00;13.50;99.90
11055;DHT22;5580;50.106;8.702;2023-04-25T14:43:25;13.50;99.90
11055;DHT22;5580;50.106;8.702;2023-04-25T14:45:51;13.50;99.90
11055;DHT22;5580;50.106;8.702;2023-04-25T14:48:18;13.50;99.90
11055;DHT22;5580;50.106;8.702;2023-04-25T14:50:45;13.60;99.90
11055;DHT22;5580;50.106;8.702;2023-04-25T14:53:11;13.60;99.90
11055;DHT22;5580;50.106;8.702;2023-04-25T14:55:37;13.60;99.90
11055;DHT22;5580;50.106;8.702;2023-04-25T14:58:03;13.60;99.60
11055;DHT22;5580;50.106;8.702;2023-04-25T15:00:28;13.60;99.20
11055;DHT22;5580;50.106;8.702;2023-04-25T15:02:56;13.50;98.90
11055;DHT22;5580;50.106;8.702;2023-04-25T15:05:22;13.50;98.40
11055;DHT22;5580;50.106;8.702;2023-04-25T15:07:47;13.50;98.30
11055;DHT22;5580;50.106;8.702;2023-04-25T15:10:13;13.40;98.60
11055;DHT22;5580;50.106;8.702;2023-04-25T15:12:41;13.40;98.40
11055;DHT22;5580;50.106;8.702;2023-04-25T15:15:08;13.40;98.60
11055;DHT22;5580;50.106;8.702;2023-04-25T15:17:38;13.40;98.60
11055;DHT22;5580;50.106;8.702;2023-04-25T15:20:06;13.50;98.80
11055;DHT22;5580;50.106;8.702;2023-04-25T15:22:32;13.50;99.00
11055;DHT22;5580;50.106;8.702;2023-04-25T15:24:57;13.50;98.80
11055;DHT22;5580;50.106;8.702;2023-04-25T15:27:23;13.50;98.70
11055;DHT22;5580;50.106;8.702;2023-04-25T15:29:49;13.40;98.80
11055;DHT22;5580;50.106;8.702;2023-04-25T15:32:14;13.40;98.60
11055;DHT22;5580;50.106;8.702;2023-04-25T15:34:40;13.40;98.50
11055;DHT22;5580;50.106;8.702;2023-04-25T15:37:06;13.30;98.60
11055;DHT22;5580;50.106;8.702;2023-04-25T15:39:31;13.30;98.80
11055;DHT22;5580;50.106;8.702;2023-04-25T15:41:57;13.30;99.40
11055;DHT22;5580;50.106;8.702;2023-04-25T15:44:24;13.40;99.40
11055;DHT22;5580;50.106;8.702;2023-04-25T15:46:49;13.40;99.60
11055;DHT22;5580;50.106;8.702;2023-04-25T15:49:15;13.40;99.60